sensor_id;sensor_type;location;lat;lon;timestamp;P1;durP1;ratioP1;P2;durP2;ratioP2
21352;SDS011;10834;52.268;6.770;2023-07-31T00:00:03;3.20;;;1.63;;
21352;SDS011;10834;52.268;6.770;2023-07-31T00:02:51;2.03;;;1.77;;
21352;SDS011;10834;52.268;6.770;2023-07-31T00:05:38;2.60;;;1.50;;
21352;SDS011;10834;52.268;6.770;2023-07-31T00:08:24;1.77;;;1.67;;
21352;SDS011;10834;52.268;6.770;2023-07-31T00:11:10;1.80;;;1.63;;
21352;SDS011;10834;52.268;6.770;2023-07-31T00:13:56;2.40;;;1.73;;
21352;SDS011;10834;52.268;6.770;2023-07-31T00:16:43;3.00;;;1.80;;
21352;SDS011;10834;52.268;6.770;2023-07-31T00:19:29;4.40;;;2.10;;
21352;SDS011;10834;52.268;6.770;2023-07-31T00:22:15;3.67;;;1.87;;
21352;SDS011;10834;52.268;6.770;2023-07-31T00:25:01;1.90;;;1.80;;
21352;SDS011;10834;52.268;6.770;2023-07-31T00:27:47;2.63;;;1.80;;
21352;SDS011;10834;52.268;6.770;2023-07-31T00:30:33;1.87;;;1.63;;
21352;SDS011;10834;52.268;6.770;2023-07-31T00:33:19;2.47;;;1.57;;
21352;SDS011;10834;52.268;6.770;2023-07-31T00:36:05;2.90;;;1.80;;
21352;SDS011;10834;52.268;6.770;2023-07-31T00:38:51;2.57;;;2.03;;
21352;SDS011;10834;52.268;6.770;2023-07-31T00:41:37;3.53;;;2.13;;
21352;SDS011;10834;52.268;6.770;2023-07-31T00:44:23;3.60;;;1.50;;
21352;SDS011;10834;52.268;6.770;2023-07-31T00:47:10;1.60;;;1.50;;
21352;SDS011;10834;52.268;6.770;2023-07-31T00:49:56;2.20;;;1.50;;
21352;SDS011;10834;52.268;6.770;2023-07-31T00:52:42;2.27;;;1.87;;
21352;SDS011;10834;52.268;6.770;2023-07-31T00:55:28;1.73;;;1.10;;
21352;SDS011;10834;52.268;6.770;2023-07-31T00:58:15;1.50;;;1.30;;
21352;SDS011;10834;52.268;6.770;2023-07-31T01:01:01;2.10;;;1.07;;
21352;SDS011;10834;52.268;6.770;2023-07-31T01:03:48;4.97;;;1.43;;
21352;SDS011;10834;52.268;6.770;2023-07-31T01:06:40;2.30;;;1.37;;
21352;SDS011;10834;52.268;6.770;2023-07-31T01:09:36;1.60;;;1.47;;
21352;SDS011;10834;52.268;6.770;2023-07-31T01:12:23;1.60;;;1.30;;
21352;SDS011;10834;52.268;6.770;2023-07-31T01:15:12;2.13;;;1.70;;
21352;SDS011;10834;52.268;6.770;2023-07-31T01:17:59;1.33;;;1.23;;
21352;SDS011;10834;52.268;6.770;2023-07-31T01:20:46;3.23;;;1.40;;
21352;SDS011;10834;52.268;6.770;2023-07-31T01:26:36;2.17;;;1.60;;
21352;SDS011;10834;52.268;6.770;2023-07-31T01:32:17;2.20;;;1.20;;
21352;SDS011;10834;52.268;6.770;2023-07-31T01:35:04;1.90;;;1.37;;
21352;SDS011;10834;52.268;6.770;2023-07-31T01:37:54;1.23;;;1.13;;
21352;SDS011;10834;52.268;6.770;2023-07-31T01:40:43;1.50;;;0.90;;
21352;SDS011;10834;52.268;6.770;2023-07-31T01:43:29;1.00;;;0.90;;
21352;SDS011;10834;52.268;6.770;2023-07-31T01:46:15;1.93;;;0.90;;
21352;SDS011;10834;52.268;6.770;2023-07-31T01:49:01;1.27;;;0.70;;
21352;SDS011;10834;52.268;6.770;2023-07-31T01:51:47;0.90;;;0.70;;
21352;SDS011;10834;52.268;6.770;2023-07-31T01:54:33;0.67;;;0.53;;
21352;SDS011;10834;52.268;6.770;2023-07-31T01:57:19;2.33;;;0.50;;
21352;SDS011;10834;52.268;6.770;2023-07-31T02:00:05;1.40;;;0.57;;
21352;SDS011;10834;52.268;6.770;2023-07-31T02:02:52;4.77;;;0.90;;
21352;SDS011;10834;52.268;6.770;2023-07-31T02:05:44;7.87;;;0.90;;
21352;SDS011;10834;52.268;6.770;2023-07-31T02:08:31;2.93;;;0.60;;
21352;SDS011;10834;52.268;6.770;2023-07-31T02:11:17;3.90;;;1.20;;
21352;SDS011;10834;52.268;6.770;2023-07-31T02:14:03;3.57;;;0.50;;
21352;SDS011;10834;52.268;6.770;2023-07-31T02:16:49;1.60;;;0.50;;
21352;SDS011;10834;52.268;6.770;2023-07-31T02:19:35;3.40;;;0.60;;
21352;SDS011;10834;52.268;6.770;2023-07-31T02:22:21;2.47;;;0.73;;
21352;SDS011;10834;52.268;6.770;2023-07-31T02:25:07;0.60;;;0.60;;
21352;SDS011;10834;52.268;6.770;2023-07-31T02:27:53;1.73;;;0.60;;
21352;SDS011;10834;52.268;6.770;2023-07-31T02:30:39;3.37;;;0.80;;
21352;SDS011;10834;52.268;6.770;2023-07-31T02:33:29;1.90;;;1.30;;
21352;SDS011;10834;52.268;6.770;2023-07-31T02:36:15;3.67;;;1.67;;
21352;SDS011;10834;52.268;6.770;2023-07-31T02:39:01;2.57;;;1.97;;
21352;SDS011;10834;52.268;6.770;2023-07-31T02:41:47;5.40;;;2.63;;
21352;SDS011;10834;52.268;6.770;2023-07-31T02:44:33;6.60;;;2.50;;
21352;SDS011;10834;52.268;6.770;2023-07-31T02:47:19;6.67;;;3.43;;
21352;SDS011;10834;52.268;6.770;2023-07-31T02:50:06;8.13;;;3.87;;
21352;SDS011;10834;52.268;6.770;2023-07-31T02:52:52;12.20;;;4.20;;
21352;SDS011;10834;52.268;6.770;2023-07-31T02:55:38;9.27;;;4.60;;
21352;SDS011;10834;52.268;6.770;2023-07-31T02:58:24;9.47;;;4.70;;
21352;SDS011;10834;52.268;6.770;2023-07-31T03:01:10;10.23;;;4.73;;
21352;SDS011;10834;52.268;6.770;2023-07-31T03:03:56;7.90;;;4.20;;
21352;SDS011;10834;52.268;6.770;2023-07-31T03:06:42;7.13;;;3.63;;
21352;SDS011;10834;52.268;6.770;2023-07-31T03:09:28;9.00;;;4.43;;
21352;SDS011;10834;52.268;6.770;2023-07-31T03:12:15;3.07;;;2.57;;
21352;SDS011;10834;52.268;6.770;2023-07-31T03:15:01;5.27;;;3.00;;
21352;SDS011;10834;52.268;6.770;2023-07-31T03:17:47;8.90;;;2.57;;
21352;SDS011;10834;52.268;6.770;2023-07-31T03:20:33;8.50;;;3.40;;
21352;SDS011;10834;52.268;6.770;2023-07-31T03:23:19;5.97;;;2.90;;
21352;SDS011;10834;52.268;6.770;2023-07-31T03:26:06;4.40;;;2.50;;
21352;SDS011;10834;52.268;6.770;2023-07-31T03:28:53;4.97;;;3.27;;
21352;SDS011;10834;52.268;6.770;2023-07-31T03:31:39;8.80;;;4.37;;
21352;SDS011;10834;52.268;6.770;2023-07-31T03:34:25;14.10;;;5.00;;
21352;SDS011;10834;52.268;6.770;2023-07-31T03:37:11;11.70;;;4.47;;
21352;SDS011;10834;52.268;6.770;2023-07-31T03:39:57;10.57;;;4.93;;
21352;SDS011;10834;52.268;6.770;2023-07-31T03:42:43;7.87;;;4.27;;
21352;SDS011;10834;52.268;6.770;2023-07-31T03:45:29;8.93;;;4.13;;
21352;SDS011;10834;52.268;6.770;2023-07-31T03:48:15;7.37;;;4.73;;
21352;SDS011;10834;52.268;6.770;2023-07-31T03:51:01;13.90;;;6.50;;
21352;SDS011;10834;52.268;6.770;2023-07-31T03:53:48;10.07;;;6.30;;
21352;SDS011;10834;52.268;6.770;2023-07-31T03:56:34;12.27;;;6.10;;
21352;SDS011;10834;52.268;6.770;2023-07-31T03:59:20;14.07;;;7.43;;
21352;SDS011;10834;52.268;6.770;2023-07-31T04:02:06;14.40;;;7.63;;
21352;SDS011;10834;52.268;6.770;2023-07-31T04:04:52;18.97;;;7.57;;
21352;SDS011;10834;52.268;6.770;2023-07-31T04:07:38;12.47;;;7.07;;
21352;SDS011;10834;52.268;6.770;2023-07-31T04:10:24;14.00;;;7.90;;
21352;SDS011;10834;52.268;6.770;2023-07-31T04:13:10;15.93;;;8.07;;
21352;SDS011;10834;52.268;6.770;2023-07-31T04:15:56;23.77;;;8.93;;
21352;SDS011;10834;52.268;6.770;2023-07-31T04:18:42;18.80;;;10.13;;
21352;SDS011;10834;52.268;6.770;2023-07-31T04:21:28;25.67;;;10.43;;
21352;SDS011;10834;52.268;6.770;2023-07-31T04:24:14;22.43;;;9.43;;
21352;SDS011;10834;52.268;6.770;2023-07-31T04:27:00;27.50;;;10.83;;
21352;SDS011;10834;52.268;6.770;2023-07-31T04:29:47;22.73;;;10.17;;
21352;SDS011;10834;52.268;6.770;2023-07-31T04:32:33;28.23;;;11.07;;
21352;SDS011;10834;52.268;6.770;2023-07-31T04:35:20;24.17;;;11.07;;
21352;SDS011;10834;52.268;6.770;2023-07-31T04:38:06;23.73;;;11.10;;
21352;SDS011;10834;52.268;6.770;2023-07-31T04:40:52;26.60;;;11.60;;
21352;SDS011;10834;52.268;6.770;2023-07-31T04:43:38;31.50;;;11.43;;
21352;SDS011;10834;52.268;6.770;2023-07-31T04:46:25;35.13;;;11.73;;
21352;SDS011;10834;52.268;6.770;2023-07-31T04:49:11;20.37;;;10.23;;
21352;SDS011;10834;52.268;6.770;2023-07-31T04:51:57;37.30;;;11.47;;
21352;SDS011;10834;52.268;6.770;2023-07-31T04:54:43;26.83;;;11.23;;
21352;SDS011;10834;52.268;6.770;2023-07-31T04:57:29;31.47;;;10.97;;
21352;SDS011;10834;52.268;6.770;2023-07-31T05:00:16;20.57;;;10.30;;
21352;SDS011;10834;52.268;6.770;2023-07-31T05:03:02;23.33;;;10.17;;
21352;SDS011;10834;52.268;6.770;2023-07-31T05:05:48;20.03;;;9.47;;
21352;SDS011;10834;52.268;6.770;2023-07-31T05:08:35;25.40;;;10.20;;
21352;SDS011;10834;52.268;6.770;2023-07-31T05:11:21;27.97;;;9.93;;
21352;SDS011;10834;52.268;6.770;2023-07-31T05:14:07;30.10;;;9.33;;
21352;SDS011;10834;52.268;6.770;2023-07-31T05:16:53;28.20;;;9.77;;
21352;SDS011;10834;52.268;6.770;2023-07-31T05:19:39;23.83;;;9.30;;
21352;SDS011;10834;52.268;6.770;2023-07-31T05:22:25;23.27;;;9.20;;
21352;SDS011;10834;52.268;6.770;2023-07-31T05:25:11;19.23;;;8.30;;
21352;SDS011;10834;52.268;6.770;2023-07-31T05:27:57;28.23;;;9.63;;
21352;SDS011;10834;52.268;6.770;2023-07-31T05:30:43;24.10;;;8.50;;
21352;SDS011;10834;52.268;6.770;2023-07-31T05:33:30;22.73;;;8.57;;
21352;SDS011;10834;52.268;6.770;2023-07-31T05:36:16;21.77;;;8.27;;
21352;SDS011;10834;52.268;6.770;2023-07-31T05:39:03;18.17;;;7.70;;
21352;SDS011;10834;52.268;6.770;2023-07-31T05:41:52;18.53;;;7.53;;
21352;SDS011;10834;52.268;6.770;2023-07-31T05:44:38;21.50;;;8.47;;
21352;SDS011;10834;52.268;6.770;2023-07-31T05:47:24;19.33;;;8.37;;
21352;SDS011;10834;52.268;6.770;2023-07-31T05:50:10;20.40;;;8.20;;
21352;SDS011;10834;52.268;6.770;2023-07-31T05:52:56;26.77;;;7.93;;
21352;SDS011;10834;52.268;6.770;2023-07-31T05:55:42;25.87;;;9.50;;
21352;SDS011;10834;52.268;6.770;2023-07-31T05:58:29;22.47;;;7.83;;
21352;SDS011;10834;52.268;6.770;2023-07-31T06:01:15;21.43;;;8.20;;
21352;SDS011;10834;52.268;6.770;2023-07-31T06:04:02;17.17;;;7.83;;
21352;SDS011;10834;52.268;6.770;2023-07-31T06:06:48;17.87;;;8.27;;
21352;SDS011;10834;52.268;6.770;2023-07-31T06:09:34;22.40;;;8.53;;
21352;SDS011;10834;52.268;6.770;2023-07-31T06:12:20;19.80;;;8.33;;
21352;SDS011;10834;52.268;6.770;2023-07-31T06:15:07;23.00;;;7.97;;
21352;SDS011;10834;52.268;6.770;2023-07-31T06:17:53;21.47;;;7.93;;
21352;SDS011;10834;52.268;6.770;2023-07-31T06:20:39;15.50;;;8.03;;
21352;SDS011;10834;52.268;6.770;2023-07-31T06:23:26;17.57;;;7.87;;
21352;SDS011;10834;52.268;6.770;2023-07-31T06:26:12;15.20;;;7.93;;
21352;SDS011;10834;52.268;6.770;2023-07-31T06:28:58;15.60;;;7.43;;
21352;SDS011;10834;52.268;6.770;2023-07-31T06:31:44;21.20;;;7.93;;
21352;SDS011;10834;52.268;6.770;2023-07-31T06:34:30;15.07;;;7.30;;
21352;SDS011;10834;52.268;6.770;2023-07-31T06:37:16;17.47;;;7.33;;
21352;SDS011;10834;52.268;6.770;2023-07-31T06:40:02;16.63;;;7.43;;
21352;SDS011;10834;52.268;6.770;2023-07-31T06:42:50;22.80;;;7.43;;
21352;SDS011;10834;52.268;6.770;2023-07-31T06:45:36;13.47;;;6.10;;
21352;SDS011;10834;52.268;6.770;2023-07-31T06:48:23;19.17;;;7.73;;
21352;SDS011;10834;52.268;6.770;2023-07-31T06:51:09;16.43;;;7.50;;
21352;SDS011;10834;52.268;6.770;2023-07-31T06:53:55;19.83;;;6.50;;
21352;SDS011;10834;52.268;6.770;2023-07-31T06:56:41;12.67;;;7.17;;
21352;SDS011;10834;52.268;6.770;2023-07-31T06:59:27;13.10;;;6.30;;
21352;SDS011;10834;52.268;6.770;2023-07-31T07:02:13;15.40;;;6.40;;
21352;SDS011;10834;52.268;6.770;2023-07-31T07:04:59;15.80;;;6.90;;
21352;SDS011;10834;52.268;6.770;2023-07-31T07:07:45;18.47;;;6.40;;
21352;SDS011;10834;52.268;6.770;2023-07-31T07:10:31;15.00;;;5.00;;
21352;SDS011;10834;52.268;6.770;2023-07-31T07:13:17;9.57;;;5.63;;
21352;SDS011;10834;52.268;6.770;2023-07-31T07:16:03;12.17;;;5.43;;
21352;SDS011;10834;52.268;6.770;2023-07-31T07:18:50;12.67;;;5.23;;
21352;SDS011;10834;52.268;6.770;2023-07-31T07:21:36;13.00;;;5.57;;
21352;SDS011;10834;52.268;6.770;2023-07-31T07:24:22;13.90;;;4.65;;
21352;SDS011;10834;52.268;6.770;2023-07-31T07:27:08;8.10;;;4.63;;
21352;SDS011;10834;52.268;6.770;2023-07-31T07:29:54;6.07;;;4.60;;
21352;SDS011;10834;52.268;6.770;2023-07-31T07:32:41;11.85;;;5.25;;
21352;SDS011;10834;52.268;6.770;2023-07-31T07:35:27;14.63;;;5.20;;
21352;SDS011;10834;52.268;6.770;2023-07-31T07:38:13;10.60;;;6.60;;
21352;SDS011;10834;52.268;6.770;2023-07-31T07:41:04;9.43;;;4.27;;
21352;SDS011;10834;52.268;6.770;2023-07-31T07:43:50;9.80;;;4.40;;
21352;SDS011;10834;52.268;6.770;2023-07-31T07:46:37;6.93;;;3.83;;
21352;SDS011;10834;52.268;6.770;2023-07-31T07:49:23;13.77;;;4.03;;
21352;SDS011;10834;52.268;6.770;2023-07-31T07:52:09;4.93;;;3.60;;
21352;SDS011;10834;52.268;6.770;2023-07-31T07:54:55;10.60;;;3.60;;
21352;SDS011;10834;52.268;6.770;2023-07-31T07:57:41;4.63;;;3.07;;
21352;SDS011;10834;52.268;6.770;2023-07-31T08:00:29;3.88;;;2.70;;
21352;SDS011;10834;52.268;6.770;2023-07-31T08:03:15;5.03;;;2.80;;
21352;SDS011;10834;52.268;6.770;2023-07-31T08:06:02;6.13;;;2.90;;
21352;SDS011;10834;52.268;6.770;2023-07-31T08:08:48;6.43;;;2.63;;
21352;SDS011;10834;52.268;6.770;2023-07-31T08:11:34;4.97;;;2.20;;
21352;SDS011;10834;52.268;6.770;2023-07-31T08:14:20;4.77;;;2.60;;
21352;SDS011;10834;52.268;6.770;2023-07-31T08:17:06;4.80;;;2.23;;
21352;SDS011;10834;52.268;6.770;2023-07-31T08:19:52;4.00;;;2.13;;
21352;SDS011;10834;52.268;6.770;2023-07-31T08:22:38;3.40;;;2.13;;
21352;SDS011;10834;52.268;6.770;2023-07-31T08:25:24;2.50;;;2.00;;
21352;SDS011;10834;52.268;6.770;2023-07-31T08:28:10;1.90;;;1.80;;
21352;SDS011;10834;52.268;6.770;2023-07-31T08:30:56;3.53;;;2.30;;
21352;SDS011;10834;52.268;6.770;2023-07-31T08:33:43;1.70;;;1.60;;
21352;SDS011;10834;52.268;6.770;2023-07-31T08:36:29;2.50;;;1.58;;
21352;SDS011;10834;52.268;6.770;2023-07-31T08:39:15;3.63;;;1.87;;
21352;SDS011;10834;52.268;6.770;2023-07-31T08:42:01;2.57;;;1.50;;
21352;SDS011;10834;52.268;6.770;2023-07-31T08:44:47;2.20;;;1.67;;
21352;SDS011;10834;52.268;6.770;2023-07-31T08:47:35;3.10;;;1.67;;
21352;SDS011;10834;52.268;6.770;2023-07-31T08:50:21;4.45;;;1.63;;
21352;SDS011;10834;52.268;6.770;2023-07-31T08:53:07;3.40;;;1.70;;
21352;SDS011;10834;52.268;6.770;2023-07-31T08:55:53;1.20;;;1.10;;
21352;SDS011;10834;52.268;6.770;2023-07-31T08:58:40;1.08;;;1.02;;
21352;SDS011;10834;52.268;6.770;2023-07-31T09:01:27;1.08;;;1.02;;
21352;SDS011;10834;52.268;6.770;2023-07-31T09:04:16;1.63;;;0.85;;
21352;SDS011;10834;52.268;6.770;2023-07-31T09:07:04;2.73;;;1.00;;
21352;SDS011;10834;52.268;6.770;2023-07-31T09:09:51;4.47;;;1.00;;
21352;SDS011;10834;52.268;6.770;2023-07-31T09:12:37;1.30;;;1.10;;
21352;SDS011;10834;52.268;6.770;2023-07-31T09:15:24;1.95;;;0.85;;
21352;SDS011;10834;52.268;6.770;2023-07-31T09:18:11;1.10;;;1.00;;
21352;SDS011;10834;52.268;6.770;2023-07-31T09:21:05;2.13;;;0.90;;
21352;SDS011;10834;52.268;6.770;2023-07-31T09:23:52;1.63;;;1.17;;
21352;SDS011;10834;52.268;6.770;2023-07-31T09:26:42;1.13;;;0.98;;
21352;SDS011;10834;52.268;6.770;2023-07-31T09:29:28;1.20;;;1.10;;
21352;SDS011;10834;52.268;6.770;2023-07-31T09:32:18;1.35;;;1.08;;
21352;SDS011;10834;52.268;6.770;2023-07-31T09:35:31;1.73;;;0.95;;
21352;SDS011;10834;52.268;6.770;2023-07-31T09:38:18;1.90;;;1.30;;
21352;SDS011;10834;52.268;6.770;2023-07-31T09:41:04;1.30;;;1.20;;
21352;SDS011;10834;52.268;6.770;2023-07-31T09:43:54;1.65;;;1.00;;
21352;SDS011;10834;52.268;6.770;2023-07-31T09:46:40;1.17;;;1.10;;
21352;SDS011;10834;52.268;6.770;2023-07-31T09:49:26;1.45;;;1.20;;
21352;SDS011;10834;52.268;6.770;2023-07-31T09:52:12;1.70;;;1.20;;
21352;SDS011;10834;52.268;6.770;2023-07-31T09:54:59;2.28;;;1.65;;
21352;SDS011;10834;52.268;6.770;2023-07-31T09:57:46;1.50;;;1.40;;
21352;SDS011;10834;52.268;6.770;2023-07-31T10:00:34;2.10;;;1.73;;
21352;SDS011;10834;52.268;6.770;2023-07-31T10:03:20;1.60;;;1.50;;
21352;SDS011;10834;52.268;6.770;2023-07-31T10:06:07;1.77;;;1.48;;
21352;SDS011;10834;52.268;6.770;2023-07-31T10:08:55;2.42;;;1.65;;
21352;SDS011;10834;52.268;6.770;2023-07-31T10:11:42;2.75;;;1.50;;
21352;SDS011;10834;52.268;6.770;2023-07-31T10:14:36;2.15;;;1.95;;
21352;SDS011;10834;52.268;6.770;2023-07-31T10:17:24;2.85;;;1.80;;
21352;SDS011;10834;52.268;6.770;2023-07-31T10:20:11;1.50;;;1.40;;
21352;SDS011;10834;52.268;6.770;2023-07-31T10:22:58;4.30;;;1.63;;
21352;SDS011;10834;52.268;6.770;2023-07-31T10:25:44;1.80;;;1.70;;
21352;SDS011;10834;52.268;6.770;2023-07-31T10:28:31;2.38;;;1.80;;
21352;SDS011;10834;52.268;6.770;2023-07-31T10:31:19;3.97;;;1.80;;
21352;SDS011;10834;52.268;6.770;2023-07-31T10:34:06;1.73;;;1.52;;
21352;SDS011;10834;52.268;6.770;2023-07-31T10:40:16;3.22;;;1.80;;
21352;SDS011;10834;52.268;6.770;2023-07-31T10:43:05;2.63;;;2.00;;
21352;SDS011;10834;52.268;6.770;2023-07-31T10:45:54;3.15;;;1.98;;
21352;SDS011;10834;52.268;6.770;2023-07-31T10:48:40;2.53;;;2.08;;
21352;SDS011;10834;52.268;6.770;2023-07-31T10:51:33;2.17;;;1.98;;
21352;SDS011;10834;52.268;6.770;2023-07-31T10:54:20;3.50;;;2.58;;
21352;SDS011;10834;52.268;6.770;2023-07-31T10:57:18;2.85;;;2.60;;
21352;SDS011;10834;52.268;6.770;2023-07-31T11:00:18;3.33;;;3.03;;
21352;SDS011;10834;52.268;6.770;2023-07-31T11:03:06;4.15;;;3.33;;
21352;SDS011;10834;52.268;6.770;2023-07-31T11:08:45;5.00;;;3.60;;
21352;SDS011;10834;52.268;6.770;2023-07-31T11:11:32;5.75;;;4.30;;
21352;SDS011;10834;52.268;6.770;2023-07-31T11:14:19;5.22;;;4.07;;
21352;SDS011;10834;52.268;6.770;2023-07-31T11:17:06;5.38;;;4.82;;
21352;SDS011;10834;52.268;6.770;2023-07-31T11:19:53;4.90;;;4.40;;
21352;SDS011;10834;52.268;6.770;2023-07-31T11:22:39;5.85;;;5.25;;
21352;SDS011;10834;52.268;6.770;2023-07-31T11:25:25;6.40;;;5.10;;
21352;SDS011;10834;52.268;6.770;2023-07-31T11:28:15;6.10;;;5.50;;
21352;SDS011;10834;52.268;6.770;2023-07-31T11:31:02;7.20;;;5.82;;
21352;SDS011;10834;52.268;6.770;2023-07-31T11:33:48;7.15;;;5.72;;
21352;SDS011;10834;52.268;6.770;2023-07-31T11:36:34;7.57;;;6.72;;
21352;SDS011;10834;52.268;6.770;2023-07-31T11:39:20;7.43;;;6.32;;
21352;SDS011;10834;52.268;6.770;2023-07-31T11:42:06;9.63;;;7.35;;
21352;SDS011;10834;52.268;6.770;2023-07-31T11:44:52;8.32;;;7.53;;
21352;SDS011;10834;52.268;6.770;2023-07-31T11:47:38;9.40;;;7.70;;
21352;SDS011;10834;52.268;6.770;2023-07-31T11:50:24;8.75;;;7.90;;
21352;SDS011;10834;52.268;6.770;2023-07-31T11:53:11;11.27;;;8.55;;
21352;SDS011;10834;52.268;6.770;2023-07-31T11:55:58;14.90;;;8.77;;
21352;SDS011;10834;52.268;6.770;2023-07-31T11:58:46;10.70;;;8.10;;
21352;SDS011;10834;52.268;6.770;2023-07-31T12:01:34;13.80;;;8.98;;
21352;SDS011;10834;52.268;6.770;2023-07-31T12:04:20;13.18;;;8.90;;
21352;SDS011;10834;52.268;6.770;2023-07-31T12:07:07;17.23;;;8.82;;
21352;SDS011;10834;52.268;6.770;2023-07-31T12:09:56;9.35;;;8.32;;
21352;SDS011;10834;52.268;6.770;2023-07-31T12:12:42;9.70;;;8.35;;
21352;SDS011;10834;52.268;6.770;2023-07-31T12:15:34;12.68;;;8.25;;
21352;SDS011;10834;52.268;6.770;2023-07-31T12:18:26;13.27;;;7.32;;
21352;SDS011;10834;52.268;6.770;2023-07-31T12:21:13;10.27;;;6.63;;
21352;SDS011;10834;52.268;6.770;2023-07-31T12:24:01;8.52;;;6.00;;
21352;SDS011;10834;52.268;6.770;2023-07-31T12:26:48;7.10;;;5.88;;
21352;SDS011;10834;52.268;6.770;2023-07-31T12:29:34;5.60;;;5.10;;
21352;SDS011;10834;52.268;6.770;2023-07-31T12:32:24;6.50;;;5.57;;
21352;SDS011;10834;52.268;6.770;2023-07-31T12:35:10;6.40;;;5.80;;
21352;SDS011;10834;52.268;6.770;2023-07-31T12:37:56;6.53;;;5.88;;
21352;SDS011;10834;52.268;6.770;2023-07-31T12:40:47;6.15;;;5.50;;
21352;SDS011;10834;52.268;6.770;2023-07-31T12:43:33;6.25;;;5.63;;
21352;SDS011;10834;52.268;6.770;2023-07-31T12:46:20;5.45;;;5.00;;
21352;SDS011;10834;52.268;6.770;2023-07-31T12:49:06;5.97;;;5.47;;
21352;SDS011;10834;52.268;6.770;2023-07-31T12:51:52;8.15;;;6.45;;
21352;SDS011;10834;52.268;6.770;2023-07-31T12:54:39;8.40;;;6.68;;
21352;SDS011;10834;52.268;6.770;2023-07-31T12:57:25;7.65;;;6.10;;
21352;SDS011;10834;52.268;6.770;2023-07-31T13:00:11;7.00;;;6.30;;
21352;SDS011;10834;52.268;6.770;2023-07-31T13:02:58;7.55;;;6.25;;
21352;SDS011;10834;52.268;6.770;2023-07-31T13:05:45;8.30;;;6.72;;
21352;SDS011;10834;52.268;6.770;2023-07-31T13:08:31;10.27;;;6.65;;
21352;SDS011;10834;52.268;6.770;2023-07-31T13:11:17;7.95;;;6.57;;
21352;SDS011;10834;52.268;6.770;2023-07-31T13:14:03;8.13;;;7.30;;
21352;SDS011;10834;52.268;6.770;2023-07-31T13:16:49;7.72;;;6.72;;
21352;SDS011;10834;52.268;6.770;2023-07-31T13:19:35;9.50;;;6.40;;
21352;SDS011;10834;52.268;6.770;2023-07-31T13:22:21;12.35;;;6.35;;
21352;SDS011;10834;52.268;6.770;2023-07-31T13:25:07;9.02;;;6.55;;
21352;SDS011;10834;52.268;6.770;2023-07-31T13:27:54;9.23;;;6.60;;
21352;SDS011;10834;52.268;6.770;2023-07-31T13:30:41;10.90;;;6.47;;
21352;SDS011;10834;52.268;6.770;2023-07-31T13:33:27;8.40;;;6.93;;
21352;SDS011;10834;52.268;6.770;2023-07-31T13:36:13;7.75;;;6.97;;
21352;SDS011;10834;52.268;6.770;2023-07-31T13:38:59;7.40;;;6.60;;
21352;SDS011;10834;52.268;6.770;2023-07-31T13:41:45;8.02;;;6.85;;
21352;SDS011;10834;52.268;6.770;2023-07-31T13:44:32;8.48;;;5.60;;
21352;SDS011;10834;52.268;6.770;2023-07-31T13:47:19;6.68;;;5.85;;
21352;SDS011;10834;52.268;6.770;2023-07-31T13:50:05;8.27;;;5.95;;
21352;SDS011;10834;52.268;6.770;2023-07-31T13:52:51;8.93;;;6.10;;
21352;SDS011;10834;52.268;6.770;2023-07-31T13:55:37;9.48;;;5.88;;
21352;SDS011;10834;52.268;6.770;2023-07-31T13:58:23;8.85;;;5.65;;
21352;SDS011;10834;52.268;6.770;2023-07-31T14:01:10;6.45;;;5.10;;
21352;SDS011;10834;52.268;6.770;2023-07-31T14:03:56;9.73;;;5.53;;
21352;SDS011;10834;52.268;6.770;2023-07-31T14:06:42;6.15;;;5.55;;
21352;SDS011;10834;52.268;6.770;2023-07-31T14:09:28;7.57;;;6.05;;
21352;SDS011;10834;52.268;6.770;2023-07-31T14:12:14;7.03;;;5.65;;
21352;SDS011;10834;52.268;6.770;2023-07-31T14:15:00;8.35;;;5.80;;
21352;SDS011;10834;52.268;6.770;2023-07-31T14:17:46;9.23;;;6.30;;
21352;SDS011;10834;52.268;6.770;2023-07-31T14:20:33;6.82;;;6.13;;
21352;SDS011;10834;52.268;6.770;2023-07-31T14:23:19;6.32;;;5.63;;
21352;SDS011;10834;52.268;6.770;2023-07-31T14:26:07;7.30;;;5.70;;
21352;SDS011;10834;52.268;6.770;2023-07-31T14:28:54;9.65;;;6.60;;
21352;SDS011;10834;52.268;6.770;2023-07-31T14:31:40;6.18;;;5.63;;
21352;SDS011;10834;52.268;6.770;2023-07-31T14:34:26;7.90;;;6.43;;
21352;SDS011;10834;52.268;6.770;2023-07-31T14:37:12;8.52;;;6.05;;
21352;SDS011;10834;52.268;6.770;2023-07-31T14:39:58;8.63;;;6.47;;
21352;SDS011;10834;52.268;6.770;2023-07-31T14:42:44;8.40;;;6.25;;
21352;SDS011;10834;52.268;6.770;2023-07-31T14:45:30;9.15;;;6.10;;
21352;SDS011;10834;52.268;6.770;2023-07-31T14:48:16;7.97;;;5.80;;
21352;SDS011;10834;52.268;6.770;2023-07-31T14:51:02;8.85;;;5.38;;
21352;SDS011;10834;52.268;6.770;2023-07-31T14:53:48;10.07;;;5.55;;
21352;SDS011;10834;52.268;6.770;2023-07-31T14:56:34;7.43;;;5.25;;
21352;SDS011;10834;52.268;6.770;2023-07-31T14:59:20;5.93;;;4.20;;
21352;SDS011;10834;52.268;6.770;2023-07-31T15:02:09;6.90;;;4.53;;
21352;SDS011;10834;52.268;6.770;2023-07-31T15:04:55;6.72;;;4.78;;
21352;SDS011;10834;52.268;6.770;2023-07-31T15:07:41;9.30;;;4.40;;
21352;SDS011;10834;52.268;6.770;2023-07-31T15:10:27;6.32;;;4.43;;
21352;SDS011;10834;52.268;6.770;2023-07-31T15:13:13;6.20;;;4.47;;
21352;SDS011;10834;52.268;6.770;2023-07-31T15:16:00;8.25;;;5.07;;
21352;SDS011;10834;52.268;6.770;2023-07-31T15:18:45;5.80;;;5.20;;
21352;SDS011;10834;52.268;6.770;2023-07-31T15:21:32;6.22;;;5.60;;
21352;SDS011;10834;52.268;6.770;2023-07-31T15:24:18;7.65;;;5.68;;
21352;SDS011;10834;52.268;6.770;2023-07-31T15:27:06;6.45;;;5.05;;
21352;SDS011;10834;52.268;6.770;2023-07-31T15:29:53;7.15;;;5.15;;
21352;SDS011;10834;52.268;6.770;2023-07-31T15:32:40;9.15;;;5.15;;
21352;SDS011;10834;52.268;6.770;2023-07-31T15:35:26;10.77;;;7.13;;
21352;SDS011;10834;52.268;6.770;2023-07-31T15:38:12;9.02;;;6.10;;
21352;SDS011;10834;52.268;6.770;2023-07-31T15:40:58;9.20;;;6.57;;
21352;SDS011;10834;52.268;6.770;2023-07-31T15:43:44;7.93;;;5.85;;
21352;SDS011;10834;52.268;6.770;2023-07-31T15:46:30;12.35;;;7.07;;
21352;SDS011;10834;52.268;6.770;2023-07-31T15:49:16;12.00;;;6.63;;
21352;SDS011;10834;52.268;6.770;2023-07-31T15:52:03;8.98;;;6.38;;
21352;SDS011;10834;52.268;6.770;2023-07-31T15:54:49;8.25;;;6.10;;
21352;SDS011;10834;52.268;6.770;2023-07-31T15:57:35;9.10;;;6.05;;
21352;SDS011;10834;52.268;6.770;2023-07-31T16:00:21;7.77;;;5.70;;
21352;SDS011;10834;52.268;6.770;2023-07-31T16:03:07;7.45;;;5.50;;
21352;SDS011;10834;52.268;6.770;2023-07-31T16:05:53;7.15;;;5.55;;
21352;SDS011;10834;52.268;6.770;2023-07-31T16:08:39;6.30;;;5.20;;
21352;SDS011;10834;52.268;6.770;2023-07-31T16:11:27;6.32;;;4.90;;
21352;SDS011;10834;52.268;6.770;2023-07-31T16:14:13;6.70;;;4.85;;
21352;SDS011;10834;52.268;6.770;2023-07-31T16:16:59;7.53;;;4.75;;
21352;SDS011;10834;52.268;6.770;2023-07-31T16:19:45;7.88;;;5.43;;
21352;SDS011;10834;52.268;6.770;2023-07-31T16:22:31;6.97;;;4.25;;
21352;SDS011;10834;52.268;6.770;2023-07-31T16:25:18;5.20;;;4.50;;
21352;SDS011;10834;52.268;6.770;2023-07-31T16:28:04;8.77;;;5.10;;
21352;SDS011;10834;52.268;6.770;2023-07-31T16:30:50;8.00;;;5.35;;
21352;SDS011;10834;52.268;6.770;2023-07-31T16:33:36;6.60;;;4.82;;
21352;SDS011;10834;52.268;6.770;2023-07-31T16:36:22;8.25;;;4.68;;
21352;SDS011;10834;52.268;6.770;2023-07-31T16:39:08;10.23;;;5.07;;
21352;SDS011;10834;52.268;6.770;2023-07-31T16:41:55;8.30;;;4.82;;
21352;SDS011;10834;52.268;6.770;2023-07-31T16:44:41;6.88;;;4.85;;
21352;SDS011;10834;52.268;6.770;2023-07-31T16:47:27;6.90;;;5.22;;
21352;SDS011;10834;52.268;6.770;2023-07-31T16:50:14;8.15;;;5.03;;